| time (UTC) | temp F | wind direction | speed MPH | gust MPH | rain 1hr in | rain 24hr in | rain mn in | humidity % | barometer mb |
| 20260831111325 | 80 | 135 | 1.0 | 2.0 | 0.00 | 0.00 | 0.00 | 62 | 1015.8 |
| 20260831110832 | 80 | 133 | 0.0 | 2.0 | 0.00 | 0.00 | 0.00 | 62 | 1015.8 |
| 20260831110325 | 80 | 124 | 0.0 | 2.0 | 0.00 | 0.00 | 0.00 | 62 | 1015.9 |
| 20260831110021 | 80 | 112 | 0.0 | 2.0 | 0.00 | 0.00 | 0.00 | 66 | 1012.5 |
| 20260831105831 | 80 | 112 | 0.0 | 2.0 | 0.00 | 0.00 | 0.00 | 63 | 1015.9 |
| 20260831105320 | 80 | 99 | 1.0 | 4.0 | 0.00 | 0.00 | 0.00 | 62 | 1015.8 |
| 20260831104828 | 80 | 92 | 2.0 | 7.0 | 0.00 | 0.00 | 0.00 | 62 | 1015.9 |
| 20260831104521 | 80 | 99 | 2.0 | 6.0 | 0.00 | 0.00 | 0.00 | 64 | 1012.4 |
| 20260831104319 | 81 | 115 | 3.0 | 6.0 | 0.00 | 0.00 | 0.00 | 60 | 1015.9 |
| 20260831103847 | 81 | 98 | 2.0 | 8.0 | 0.00 | 0.00 | 0.00 | 57 | 1015.6 |
| 20260831103321 | 82 | 94 | 2.0 | 7.0 | 0.00 | 0.00 | 0.00 | 54 | 1015.3 |
| 20260831103021 | 81 | 91 | 1.0 | 5.0 | 0.00 | 0.00 | 0.00 | 57 | 1011.7 |
| 20260831102829 | 82 | 99 | 1.0 | 5.0 | 0.00 | 0.00 | 0.00 | 54 | 1015.1 |
| 20260831102320 | 82 | 116 | 2.0 | 4.0 | 0.00 | 0.00 | 0.00 | 53 | 1014.8 |
| 20260831101827 | 82 | 57 | 2.0 | 9.0 | 0.00 | 0.00 | 0.00 | 53 | 1014.6 |
| 20260831101518 | 81 | 59 | 2.0 | 9.0 | 0.00 | 0.00 | 0.00 | 56 | 1011.2 |
| 20260831101319 | 82 | 93 | 2.0 | 9.0 | 0.00 | 0.00 | 0.00 | 53 | 1014.7 |
| 20260831100845 | 82 | 52 | 2.0 | 9.0 | 0.00 | 0.00 | 0.00 | 53 | 1014.7 |
| 20260831100314 | 82 | 31 | 3.0 | 9.0 | 0.00 | 0.00 | 0.00 | 54 | 1014.9 |
| 20260831100019 | 82 | 77 | 4.0 | 9.0 | 0.00 | 0.00 | 0.00 | 60 | 1011.6 |
| 20260831095822 | 82 | 78 | 5.0 | 9.0 | 0.00 | 0.00 | 0.00 | 56 | 1015.1 |
| 20260831095314 | 83 | 91 | 1.0 | 8.0 | 0.00 | 0.00 | 0.00 | 55 | 1015.2 |
| 20260831094824 | 83 | 132 | 2.0 | 8.0 | 0.00 | 0.00 | 0.00 | 53 | 1015.2 |
| 20260831094520 | 83 | 323 | 0.0 | 2.0 | 0.00 | 0.00 | 0.00 | 55 | 1011.7 |
| 20260831094315 | 83 | 323 | 0.0 | 2.0 | 0.00 | 0.00 | 0.00 | 52 | 1015.3 |
| 20260831093823 | 83 | 309 | 0.0 | 2.0 | 0.00 | 0.00 | 0.00 | 52 | 1015.4 |
| 20260831093335 | 83 | 309 | 1.0 | 2.0 | 0.00 | 0.00 | 0.00 | 51 | 1015.3 |
| 20260831093024 | 83 | 63 | 0.0 | 3.0 | 0.00 | 0.00 | 0.00 | 54 | 1011.9 |
| 20260831092821 | 83 | 65 | 1.0 | 5.0 | 0.00 | 0.00 | 0.00 | 51 | 1015.4 |
| 20260831092332 | 83 | 35 | 1.0 | 5.0 | 0.00 | 0.00 | 0.00 | 50 | 1015.3 |
| 20260831091818 | 83 | 355 | 2.0 | 4.0 | 0.00 | 0.00 | 0.00 | 51 | 1015.4 |
| 20260831091523 | 83 | 17 | 1.0 | 6.0 | 0.00 | 0.00 | 0.00 | 55 | 1012.0 |
| 20260831091347 | 83 | 75 | 2.0 | 6.0 | 0.00 | 0.00 | 0.00 | 52 | 1015.5 |
| 20260831090813 | 83 | 65 | 1.0 | 6.0 | 0.00 | 0.00 | 0.00 | 52 | 1015.4 |
| 20260831090325 | 83 | 76 | 3.0 | 9.0 | 0.00 | 0.00 | 0.00 | 52 | 1015.4 |
| 20260831090023 | 82 | 77 | 2.0 | 9.0 | 0.00 | 0.00 | 0.00 | 55 | 1012.1 |
| 20260831085816 | 83 | 90 | 2.0 | 9.0 | 0.00 | 0.00 | 0.00 | 51 | 1015.6 |
| 20260831085327 | 83 | 71 | 2.0 | 7.0 | 0.00 | 0.00 | 0.00 | 51 | 1015.8 |
| 20260831084813 | 83 | 69 | 2.0 | 7.0 | 0.00 | 0.00 | 0.00 | 52 | 1015.9 |
| 20260831084523 | 82 | 99 | 1.0 | 12.0 | 0.00 | 0.00 | 0.00 | 56 | 1012.5 |
| 20260831084323 | 83 | 29 | 1.0 | 12.0 | 0.00 | 0.00 | 0.00 | 52 | 1016.1 |
| 20260831083830 | 83 | 82 | 2.0 | 12.0 | 0.00 | 0.00 | 0.00 | 52 | 1016.1 |
| 20260831083342 | 83 | 17 | 2.0 | 10.0 | 0.00 | 0.00 | 0.00 | 52 | 1016.1 |
| 20260831083023 | 83 | 17 | 2.0 | 7.0 | 0.00 | 0.00 | 0.00 | 55 | 1012.8 |
| 20260831082827 | 83 | 59 | 1.0 | 7.0 | 0.00 | 0.00 | 0.00 | 52 | 1016.2 |
| 20260831082317 | 83 | 64 | 2.0 | 8.0 | 0.00 | 0.00 | 0.00 | 53 | 1016.3 |
| 20260831081825 | 83 | 50 | 3.0 | 10.0 | 0.00 | 0.00 | 0.00 | 52 | 1016.3 |
| 20260831081523 | 83 | 101 | 3.0 | 10.0 | 0.00 | 0.00 | 0.00 | 55 | 1012.8 |
| 20260831081336 | 83 | 134 | 4.0 | 10.0 | 0.00 | 0.00 | 0.00 | 51 | 1016.2 |
| 20260831080821 | 84 | 84 | 1.0 | 16.0 | 0.00 | 0.00 | 0.00 | 51 | 1016.2 |
| 20260831080317 | 84 | 360 | 6.0 | 16.0 | 0.00 | 0.00 | 0.00 | 51 | 1016.1 |
| 20260831080033 | 83 | 336 | 8.0 | 16.0 | 0.00 | 0.00 | 0.00 | 55 | 1012.8 |
| 20260831075844 | 84 | 351 | 6.0 | 13.0 | 0.00 | 0.00 | 0.00 | 52 | 1016.3 |
| 20260831075333 | 83 | 324 | 2.0 | 10.0 | 0.00 | 0.00 | 0.00 | 53 | 1016.6 |
| 20260831074840 | 83 | 246 | 1.0 | 15.0 | 0.00 | 0.00 | 0.00 | 54 | 1016.5 |
| 20260831074524 | 83 | 9 | 3.0 | 17.0 | 0.00 | 0.00 | 0.00 | 58 | 1012.8 |
| 20260831074329 | 83 | 22 | 2.0 | 17.0 | 0.00 | 0.00 | 0.00 | 55 | 1016.2 |
| 20260831073817 | 83 | 348 | 6.0 | 17.0 | 0.00 | 0.00 | 0.00 | 55 | 1015.8 |
| 20260831073327 | 84 | 346 | 4.0 | 15.0 | 0.00 | 0.00 | 0.00 | 55 | 1016.0 |
| 20260831073029 | 83 | 315 | 4.0 | 15.0 | 0.00 | 0.00 | 0.00 | 58 | 1012.1 |
| 20260831072834 | 84 | 89 | 5.0 | 15.0 | 0.00 | 0.00 | 0.00 | 55 | 1015.4 |
| 20260831072325 | 84 | 145 | 5.0 | 13.0 | 0.00 | 0.00 | 0.00 | 55 | 1015.4 |
| 20260831071832 | 84 | 70 | 3.0 | 11.0 | 0.00 | 0.00 | 0.00 | 55 | 1015.9 |
| 20260831071524 | 84 | 333 | 4.0 | 13.0 | 0.00 | 0.00 | 0.00 | 59 | 1012.7 |
| 20260831071325 | 85 | 332 | 4.0 | 13.0 | 0.00 | 0.00 | 0.00 | 55 | 1016.2 |
| 20260831070816 | 85 | 360 | 5.0 | 13.0 | 0.00 | 0.00 | 0.00 | 54 | 1016.3 |
| 20260831070329 | 85 | 348 | 5.0 | 14.0 | 0.00 | 0.00 | 0.00 | 53 | 1016.1 |
| 20260831070027 | 85 | 45 | 3.0 | 15.0 | 0.00 | 0.00 | 0.00 | 56 | 1012.3 |
| 20260831065816 | 86 | 5 | 7.0 | 15.0 | 0.00 | 0.00 | 0.00 | 51 | 1015.8 |
| 20260831065347 | 85 | 355 | 9.0 | 15.0 | 0.00 | 0.00 | 0.00 | 52 | 1015.6 |
| 20260831064814 | 85 | 17 | 5.0 | 16.0 | 0.00 | 0.00 | 0.00 | 53 | 1015.6 |
| 20260831064525 | 84 | 331 | 8.0 | 16.0 | 0.00 | 0.00 | 0.00 | 57 | 1012.4 |
| 20260831064325 | 85 | 342 | 6.0 | 13.0 | 0.00 | 0.00 | 0.00 | 54 | 1016.0 |
| 20260831063833 | 85 | 10 | 7.0 | 13.0 | 0.00 | 0.00 | 0.00 | 53 | 1015.8 |
| 20260831063343 | 85 | 345 | 4.0 | 11.0 | 0.00 | 0.00 | 0.00 | 52 | 1015.5 |
| 20260831063025 | 84 | 9 | 5.0 | 10.0 | 0.00 | 0.00 | 0.00 | 56 | 1011.9 |
| 20260831062829 | 85 | 18 | 4.0 | 11.0 | 0.00 | 0.00 | 0.00 | 52 | 1015.4 |
| 20260831062319 | 85 | 318 | 3.0 | 13.0 | 0.00 | 0.00 | 0.00 | 52 | 1015.2 |
| 20260831061826 | 85 | 360 | 5.0 | 13.0 | 0.00 | 0.00 | 0.00 | 52 | 1015.4 |
| 20260831061531 | 85 | 18 | 3.0 | 13.0 | 0.00 | 0.00 | 0.00 | 55 | 1011.9 |
| 20260831061321 | 85 | 355 | 5.0 | 13.0 | 0.00 | 0.00 | 0.00 | 52 | 1015.4 |
| 20260831060829 | 85 | 323 | 5.0 | 13.0 | 0.00 | 0.00 | 0.00 | 52 | 1015.0 |
| 20260831060320 | 85 | 5 | 5.0 | 10.0 | 0.00 | 0.00 | 0.00 | 54 | 1015.2 |
| 20260831060030 | 85 | 352 | 4.0 | 9.0 | 0.00 | 0.00 | 0.00 | 55 | 1011.7 |
| 20260831055827 | 85 | 335 | 4.0 | 9.0 | 0.00 | 0.00 | 0.00 | 52 | 1015.0 |
| 20260831055318 | 85 | 292 | 2.0 | 12.0 | 0.00 | 0.00 | 0.00 | 51 | 1014.4 |
| 20260831054825 | 86 | 217 | 5.0 | 12.0 | 0.00 | 0.00 | 0.00 | 50 | 1014.4 |
| 20260831054527 | 86 | 221 | 4.0 | 10.0 | 0.00 | 0.00 | 0.00 | 54 | 1011.0 |
| 20260831054316 | 87 | 232 | 3.0 | 10.0 | 0.00 | 0.00 | 0.00 | 50 | 1014.4 |
| 20260831053822 | 88 | 215 | 4.0 | 11.0 | 0.00 | 0.00 | 0.00 | 47 | 1014.4 |
| 20260831053313 | 89 | 229 | 6.0 | 12.0 | 0.00 | 0.00 | 0.00 | 43 | 1014.4 |
| 20260831053030 | 88 | 250 | 4.0 | 11.0 | 0.00 | 0.00 | 0.00 | 47 | 1011.0 |
| 20260831052819 | 89 | 257 | 4.0 | 11.0 | 0.00 | 0.00 | 0.00 | 43 | 1014.3 |
| 20260831052314 | 88 | 246 | 4.0 | 11.0 | 0.00 | 0.00 | 0.00 | 43 | 1014.3 |
| 20260831051822 | 88 | 260 | 3.0 | 8.0 | 0.00 | 0.00 | 0.00 | 45 | 1014.2 |
| 20260831051532 | 87 | 286 | 4.0 | 8.0 | 0.00 | 0.00 | 0.00 | 49 | 1010.8 |
| 20260831051353 | 88 | 265 | 5.0 | 8.0 | 0.00 | 0.00 | 0.00 | 46 | 1014.2 |
| 20260831050819 | 87 | 226 | 2.0 | 10.0 | 0.00 | 0.00 | 0.00 | 50 | 1014.1 |
| 20260831050352 | 86 | 242 | 5.0 | 15.0 | 0.00 | 0.00 | 0.00 | 50 | 1014.3 |
| 20260831050029 | 86 | 198 | 6.0 | 20.0 | 0.00 | 0.00 | 0.00 | 54 | 1010.8 |
| 20260831045818 | 86 | 224 | 7.0 | 20.0 | 0.00 | 0.00 | 0.00 | 51 | 1014.3 |
| 20260831045329 | 85 | 228 | 8.0 | 15.0 | 0.00 | 0.00 | 0.00 | 54 | 1014.4 |
| 20260831044835 | 85 | 278 | 6.0 | 14.0 | 0.00 | 0.00 | 0.00 | 56 | 1014.6 |
| 20260831044527 | 85 | 221 | 5.0 | 12.0 | 0.00 | 0.00 | 0.00 | 60 | 1011.2 |
| 20260831044325 | 86 | 211 | 4.0 | 12.0 | 0.00 | 0.00 | 0.00 | 56 | 1014.7 |
| 20260831043832 | 87 | 192 | 7.0 | 13.0 | 0.00 | 0.00 | 0.00 | 54 | 1014.8 |
| 20260831043323 | 89 | 248 | 6.0 | 19.0 | 0.00 | 0.00 | 0.00 | 48 | 1014.5 |
| 20260831043030 | 90 | 286 | 8.0 | 20.0 | 0.00 | 0.00 | 0.00 | 51 | 1011.4 |
| 20260831042814 | 91 | 199 | 11.0 | 20.0 | 0.00 | 0.00 | 0.00 | 47 | 1015.0 |
| 20260831042325 | 92 | 219 | 3.0 | 11.0 | 0.00 | 0.00 | 0.00 | 44 | 1014.2 |
| 20260831041813 | 92 | 227 | 6.0 | 15.0 | 0.00 | 0.00 | 0.00 | 43 | 1014.3 |
| 20260831041527 | 92 | 215 | 5.0 | 10.0 | 0.00 | 0.00 | 0.00 | 46 | 1010.9 |
| 20260831041407 | 92 | 244 | 4.0 | 15.0 | 0.00 | 0.00 | 0.00 | 42 | 1014.2 |
| 20260831041325 | 92 | 244 | 4.0 | 15.0 | 0.00 | 0.00 | 0.00 | 42 | 1014.2 |
| 20260831040830 | 92 | 221 | 5.0 | 15.0 | 0.00 | 0.00 | 0.00 | 42 | 1014.2 |
| 20260831040321 | 92 | 248 | 3.0 | 15.0 | 0.00 | 0.00 | 0.00 | 41 | 1014.2 |
| 20260831040031 | 92 | 219 | 7.0 | 15.0 | 0.00 | 0.00 | 0.00 | 44 | 1010.8 |
| 20260831035828 | 93 | 219 | 7.0 | 15.0 | 0.00 | 0.00 | 0.00 | 40 | 1014.3 |
| 20260831035319 | 93 | 211 | 6.0 | 16.0 | 0.00 | 0.00 | 0.00 | 40 | 1014.2 |
| 20260831034847 | 93 | 212 | 6.0 | 16.0 | 0.00 | 0.00 | 0.00 | 39 | 1014.0 |
| 20260831034527 | 93 | 200 | 8.0 | 17.0 | 0.00 | 0.00 | 0.00 | 42 | 1010.5 |
| 20260831034316 | 95 | 196 | 5.0 | 17.0 | 0.00 | 0.00 | 0.00 | 38 | 1014.0 |
| 20260831033823 | 97 | 163 | 9.0 | 17.0 | 0.00 | 0.00 | 0.00 | 35 | 1013.9 |
| 20260831033314 | 98 | 277 | 0.0 | 2.0 | 0.00 | 0.00 | 0.00 | 35 | 1013.2 |
| 20260831033028 | 98 | 314 | 0.0 | 2.0 | 0.00 | 0.00 | 0.00 | 37 | 1009.6 |
| 20260831032825 | 98 | 330 | 0.0 | 2.0 | 0.00 | 0.00 | 0.00 | 34 | 1012.9 |
| 20260831032316 | 99 | 330 | 0.0 | 2.0 | 0.00 | 0.00 | 0.00 | 33 | 1012.9 |
| 20260831031823 | 98 | 330 | 0.0 | 2.0 | 0.00 | 0.00 | 0.00 | 33 | 1012.9 |
| 20260831031529 | 98 | 352 | 0.0 | 2.0 | 0.00 | 0.00 | 0.00 | 38 | 1009.4 |
| 20260831031314 | 99 | 355 | 0.0 | 2.0 | 0.00 | 0.00 | 0.00 | 34 | 1012.8 |
| 20260831030821 | 99 | 355 | 0.0 | 2.0 | 0.00 | 0.00 | 0.00 | 33 | 1012.7 |
| 20260831030313 | 100 | 355 | 0.0 | 2.0 | 0.00 | 0.00 | 0.00 | 32 | 1012.7 |
| 20260831030005 | 99 | 352 | 0.0 | 2.0 | 0.00 | 0.00 | 0.00 | 35 | 1009.2 |
| 20260831025820 | 100 | 355 | 0.0 | 2.0 | 0.00 | 0.00 | 0.00 | 32 | 1012.6 |
| 20260831025351 | 99 | 355 | 0.0 | 2.0 | 0.00 | 0.00 | 0.00 | 32 | 1012.5 |
| 20260831024817 | 99 | 355 | 0.0 | 2.0 | 0.00 | 0.00 | 0.00 | 32 | 1012.5 |
| 20260831024515 | 99 | 352 | 0.0 | 2.0 | 0.00 | 0.00 | 0.00 | 35 | 1009.1 |
| 20260831024328 | 100 | 355 | 0.0 | 2.0 | 0.00 | 0.00 | 0.00 | 31 | 1012.4 |
| 20260831023819 | 100 | 9 | 0.0 | 2.0 | 0.00 | 0.00 | 0.00 | 31 | 1012.3 |
| 20260831023330 | 100 | 355 | 0.0 | 2.0 | 0.00 | 0.00 | 0.00 | 31 | 1012.3 |
| 20260831023019 | 99 | 352 | 1.0 | 2.0 | 0.00 | 0.00 | 0.00 | 34 | 1008.7 |
| 20260831022817 | 99 | 21 | 0.0 | 2.0 | 0.00 | 0.00 | 0.00 | 32 | 1012.2 |
| 20260831022328 | 100 | 40 | 0.0 | 2.0 | 0.00 | 0.00 | 0.00 | 31 | 1012.1 |
| 20260831021815 | 100 | 73 | 0.0 | 2.0 | 0.00 | 0.00 | 0.00 | 31 | 1012.0 |
| 20260831021528 | 100 | 5 | 0.0 | 2.0 | 0.00 | 0.00 | 0.00 | 34 | 1008.3 |
| 20260831021326 | 100 | 5 | 1.0 | 2.0 | 0.00 | 0.00 | 0.00 | 30 | 1011.9 |
| 20260831020813 | 100 | 9 | 1.0 | 2.0 | 0.00 | 0.00 | 0.00 | 31 | 1011.7 |
| 20260831020325 | 100 | 355 | 0.0 | 2.0 | 0.00 | 0.00 | 0.00 | 31 | 1011.8 |
| 20260831020031 | 100 | 5 | 0.0 | 2.0 | 0.00 | 0.00 | 0.00 | 34 | 1008.1 |
| 20260831015815 | 101 | 5 | 0.0 | 2.0 | 0.00 | 0.00 | 0.00 | 30 | 1011.7 |
| 20260831015326 | 102 | 355 | 1.0 | 2.0 | 0.00 | 0.00 | 0.00 | 29 | 1011.7 |
| 20260831014813 | 102 | 360 | 1.0 | 2.0 | 0.00 | 0.00 | 0.00 | 29 | 1011.6 |
| 20260831014522 | 101 | 17 | 1.0 | 2.0 | 0.00 | 0.00 | 0.00 | 32 | 1008.0 |
| 20260831014325 | 102 | 338 | 1.0 | 1.0 | 0.00 | 0.00 | 0.00 | 29 | 1011.4 |
| 20260831013851 | 102 | 284 | 0.0 | 2.0 | 0.00 | 0.00 | 0.00 | 29 | 1011.4 |
| 20260831013341 | 103 | 322 | 0.0 | 4.0 | 0.00 | 0.00 | 0.00 | 28 | 1011.3 |
| 20260831013017 | 102 | 326 | 2.0 | 4.0 | 0.00 | 0.00 | 0.00 | 31 | 1007.7 |
| 20260831012827 | 102 | 299 | 2.0 | 4.0 | 0.00 | 0.00 | 0.00 | 28 | 1011.2 |
| 20260831012318 | 103 | 26 | 2.0 | 4.0 | 0.00 | 0.00 | 0.00 | 28 | 1011.1 |
| 20260831011846 | 103 | 340 | 2.0 | 4.0 | 0.00 | 0.00 | 0.00 | 28 | 1011.2 |
| 20260831011534 | 103 | 5 | 1.0 | 3.0 | 0.00 | 0.00 | 0.00 | 31 | 1007.8 |
| 20260831011315 | 104 | 329 | 1.0 | 3.0 | 0.00 | 0.00 | 0.00 | 27 | 1011.2 |
| 20260831010822 | 104 | 35 | 1.0 | 3.0 | 0.00 | 0.00 | 0.00 | 27 | 1011.3 |
| 20260831010315 | 103 | 303 | 1.0 | 3.0 | 0.00 | 0.00 | 0.00 | 27 | 1011.4 |
| 20260831010028 | 103 | 342 | 1.0 | 6.0 | 0.00 | 0.00 | 0.00 | 31 | 1007.9 |
| 20260831005825 | 103 | 360 | 0.0 | 6.0 | 0.00 | 0.00 | 0.00 | 27 | 1011.4 |
| 20260831005316 | 104 | 333 | 3.0 | 6.0 | 0.00 | 0.00 | 0.00 | 27 | 1011.6 |
| 20260831004823 | 104 | 315 | 2.0 | 6.0 | 0.00 | 0.00 | 0.00 | 27 | 1011.6 |
| 20260831004529 | 104 | 271 | 2.0 | 7.0 | 0.00 | 0.00 | 0.00 | 30 | 1008.0 |
| 20260831004314 | 104 | 311 | 2.0 | 6.0 | 0.00 | 0.00 | 0.00 | 27 | 1011.6 |
| 20260831003821 | 104 | 273 | 3.0 | 7.0 | 0.00 | 0.00 | 0.00 | 27 | 1011.6 |
| 20260831003332 | 104 | 240 | 2.0 | 6.0 | 0.00 | 0.00 | 0.00 | 27 | 1011.6 |
| 20260831003015 | 104 | 273 | 1.0 | 6.0 | 0.00 | 0.00 | 0.00 | 30 | 1008.2 |
| 20260831002819 | 105 | 252 | 1.0 | 3.0 | 0.00 | 0.00 | 0.00 | 27 | 1011.6 |
| 20260831002330 | 105 | 179 | 1.0 | 3.0 | 0.00 | 0.00 | 0.00 | 26 | 1011.6 |
| 20260831001817 | 105 | 200 | 2.0 | 6.0 | 0.00 | 0.00 | 0.00 | 26 | 1011.6 |
| 20260831001518 | 104 | 240 | 1.0 | 8.0 | 0.00 | 0.00 | 0.00 | 30 | 1008.1 |
| 20260831001327 | 105 | 227 | 2.0 | 8.0 | 0.00 | 0.00 | 0.00 | 26 | 1011.7 |
| 20260831000818 | 105 | 242 | 3.0 | 8.0 | 0.00 | 0.00 | 0.00 | 26 | 1011.6 |
| 20260831000329 | 105 | 229 | 4.0 | 8.0 | 0.00 | 0.00 | 0.00 | 27 | 1011.7 |
| 20260831000024 | 104 | 213 | 1.0 | 7.0 | 0.00 | 0.00 | 0.00 | 29 | 1008.3 |
| 20260830235816 | 105 | 319 | 2.0 | 7.0 | 0.00 | 0.00 | 0.00 | 26 | 1011.7 |
| 20260830235327 | 105 | 292 | 3.0 | 5.0 | 0.00 | 0.00 | 0.00 | 26 | 1011.8 |
| 20260830234814 | 105 | 345 | 1.0 | 8.0 | 0.00 | 0.00 | 0.00 | 26 | 1011.7 |
| 20260830234537 | 105 | 352 | 3.0 | 8.0 | 0.00 | 0.00 | 0.00 | 29 | 1008.3 |
| 20260830234325 | 106 | 355 | 3.0 | 8.0 | 0.00 | 0.00 | 0.00 | 27 | 1011.8 |
| 20260830233833 | 105 | 282 | 1.0 | 4.0 | 0.00 | 0.00 | 0.00 | 26 | 1011.8 |
| 20260830233323 | 105 | 340 | 1.0 | 4.0 | 0.00 | 0.00 | 0.00 | 26 | 1012.0 |
| 20260830233031 | 104 | 352 | 2.0 | 7.0 | 0.00 | 0.00 | 0.00 | 29 | 1008.5 |
| 20260830232814 | 105 | 17 | 1.0 | 7.0 | 0.00 | 0.00 | 0.00 | 26 | 1012.0 |
| 20260830232318 | 105 | 204 | 3.0 | 7.0 | 0.00 | 0.00 | 0.00 | 26 | 1012.0 |
| 20260830231825 | 105 | 312 | 1.0 | 7.0 | 0.00 | 0.00 | 0.00 | 26 | 1012.1 |
| 20260830231518 | 105 | 288 | 2.0 | 7.0 | 0.00 | 0.00 | 0.00 | 29 | 1008.8 |
| 20260830231316 | 106 | 250 | 4.0 | 7.0 | 0.00 | 0.00 | 0.00 | 25 | 1012.3 |
| 20260830230823 | 106 | 281 | 3.0 | 9.0 | 0.00 | 0.00 | 0.00 | 25 | 1012.4 |
| 20260830230315 | 105 | 261 | 6.0 | 10.0 | 0.00 | 0.00 | 0.00 | 25 | 1012.4 |
| 20260830230024 | 105 | 238 | 5.0 | 10.0 | 0.00 | 0.00 | 0.00 | 29 | 1009.0 |
| 20260830225821 | 106 | 317 | 4.0 | 10.0 | 0.00 | 0.00 | 0.00 | 26 | 1012.5 |
| 20260830225333 | 106 | 274 | 4.0 | 8.0 | 0.00 | 0.00 | 0.00 | 25 | 1012.5 |
| 20260830224819 | 106 | 253 | 1.0 | 6.0 | 0.00 | 0.00 | 0.00 | 25 | 1012.6 |
| 20260830224528 | 105 | 104 | 1.0 | 7.0 | 0.00 | 0.00 | 0.00 | 30 | 1009.3 |
| 20260830224329 | 105 | 157 | 3.0 | 6.0 | 0.00 | 0.00 | 0.00 | 26 | 1012.7 |
| 20260830223816 | 106 | 312 | 1.0 | 4.0 | 0.00 | 0.00 | 0.00 | 25 | 1012.8 |
| 20260830223330 | 106 | 9 | 1.0 | 5.0 | 0.00 | 0.00 | 0.00 | 25 | 1012.9 |
| 20260830223032 | 105 | 338 | 3.0 | 5.0 | 0.00 | 0.00 | 0.00 | 30 | 1009.6 |
| 20260830222817 | 105 | 329 | 2.0 | 5.0 | 0.00 | 0.00 | 0.00 | 26 | 1013.0 |
| 20260830222327 | 104 | 164 | 1.0 | 5.0 | 0.00 | 0.00 | 0.00 | 27 | 1013.1 |
| 20260830221814 | 105 | 5 | 2.0 | 8.0 | 0.00 | 0.00 | 0.00 | 26 | 1013.2 |
| 20260830221512 | 104 | 316 | 2.0 | 8.0 | 0.00 | 0.00 | 0.00 | 30 | 1009.8 |
| 20260830221325 | 105 | 294 | 4.0 | 8.0 | 0.00 | 0.00 | 0.00 | 26 | 1013.3 |
| 20260830220832 | 105 | 281 | 3.0 | 5.0 | 0.00 | 0.00 | 0.00 | 26 | 1013.3 |
| 20260830220323 | 106 | 209 | 3.0 | 5.0 | 0.00 | 0.00 | 0.00 | 25 | 1013.5 |
| 20260830220017 | 106 | 314 | 2.0 | 4.0 | 0.00 | 0.00 | 0.00 | 29 | 1010.1 |
| 20260830215831 | 105 | 248 | 1.0 | 4.0 | 0.00 | 0.00 | 0.00 | 26 | 1013.6 |
| 20260830215321 | 104 | 279 | 1.0 | 5.0 | 0.00 | 0.00 | 0.00 | 26 | 1013.7 |
| 20260830214832 | 104 | 17 | 1.0 | 7.0 | 0.00 | 0.00 | 0.00 | 26 | 1013.8 |
| 20260830214525 | 105 | 180 | 2.0 | 10.0 | 0.00 | 0.00 | 0.00 | 29 | 1010.4 |
| 20260830214323 | 105 | 263 | 3.0 | 10.0 | 0.00 | 0.00 | 0.00 | 26 | 1013.9 |
| 20260830213831 | 106 | 195 | 4.0 | 10.0 | 0.00 | 0.00 | 0.00 | 26 | 1014.1 |
| 20260830213321 | 105 | 70 | 3.0 | 6.0 | 0.00 | 0.00 | 0.00 | 26 | 1014.2 |
| 20260830213029 | 105 | 293 | 3.0 | 6.0 | 0.00 | 0.00 | 0.00 | 29 | 1010.8 |
| 20260830212828 | 105 | 292 | 2.0 | 6.0 | 0.00 | 0.00 | 0.00 | 27 | 1014.3 |
| 20260830212319 | 104 | 199 | 2.0 | 8.0 | 0.00 | 0.00 | 0.00 | 26 | 1014.4 |
| 20260830211826 | 105 | 250 | 3.0 | 7.0 | 0.00 | 0.00 | 0.00 | 27 | 1014.5 |
| 20260830211531 | 105 | 266 | 4.0 | 8.0 | 0.00 | 0.00 | 0.00 | 30 | 1011.1 |
| 20260830211316 | 105 | 217 | 2.0 | 7.0 | 0.00 | 0.00 | 0.00 | 26 | 1014.5 |
| 20260830210823 | 105 | 341 | 1.0 | 3.0 | 0.00 | 0.00 | 0.00 | 27 | 1014.6 |
| 20260830210320 | 105 | 30 | 1.0 | 4.0 | 0.00 | 0.00 | 0.00 | 27 | 1014.7 |
| 20260830210014 | 104 | 90 | 2.0 | 5.0 | 0.00 | 0.00 | 0.00 | 31 | 1011.4 |
| 20260830205826 | 104 | 121 | 2.0 | 5.0 | 0.00 | 0.00 | 0.00 | 28 | 1014.8 |
| 20260830205337 | 104 | 55 | 2.0 | 7.0 | 0.00 | 0.00 | 0.00 | 29 | 1014.9 |
| 20260830204824 | 104 | 298 | 2.0 | 7.0 | 0.00 | 0.00 | 0.00 | 28 | 1015.0 |
| 20260830204520 | 103 | 240 | 4.0 | 7.0 | 0.00 | 0.00 | 0.00 | 32 | 1011.7 |
| 20260830204315 | 103 | 257 | 1.0 | 4.0 | 0.00 | 0.00 | 0.00 | 29 | 1015.1 |
| 20260830203822 | 102 | 275 | 2.0 | 4.0 | 0.00 | 0.00 | 0.00 | 29 | 1015.2 |
| 20260830203313 | 103 | 192 | 2.0 | 5.0 | 0.00 | 0.00 | 0.00 | 28 | 1015.3 |
| 20260830203028 | 103 | 309 | 2.0 | 6.0 | 0.00 | 0.00 | 0.00 | 32 | 1011.9 |
| 20260830202820 | 103 | 221 | 3.0 | 5.0 | 0.00 | 0.00 | 0.00 | 28 | 1015.4 |
| 20260830202331 | 103 | 207 | 2.0 | 6.0 | 0.00 | 0.00 | 0.00 | 29 | 1015.5 |
| 20260830201818 | 103 | 263 | 4.0 | 8.0 | 0.00 | 0.00 | 0.00 | 29 | 1015.6 |
| 20260830201531 | 103 | 304 | 3.0 | 8.0 | 0.00 | 0.00 | 0.00 | 32 | 1012.2 |
| 20260830201313 | 103 | 281 | 4.0 | 8.0 | 0.00 | 0.00 | 0.00 | 29 | 1015.7 |
| 20260830200820 | 104 | 261 | 2.0 | 6.0 | 0.00 | 0.00 | 0.00 | 29 | 1015.7 |
| 20260830200351 | 103 | 315 | 1.0 | 6.0 | 0.00 | 0.00 | 0.00 | 30 | 1015.8 |
| 20260830200044 | 102 | 298 | 1.0 | 6.0 | 0.00 | 0.00 | 0.00 | 33 | 1012.4 |
| 20260830195817 | 102 | 309 | 3.0 | 6.0 | 0.00 | 0.00 | 0.00 | 30 | 1015.9 |
| 20260830195328 | 101 | 360 | 3.0 | 5.0 | 0.00 | 0.00 | 0.00 | 30 | 1016.0 |
| 20260830194814 | 102 | 274 | 2.0 | 7.0 | 0.00 | 0.00 | 0.00 | 31 | 1016.1 |
| 20260830194519 | 101 | 178 | 1.0 | 7.0 | 0.00 | 0.00 | 0.00 | 34 | 1012.6 |
| 20260830194325 | 102 | 193 | 3.0 | 7.0 | 0.00 | 0.00 | 0.00 | 30 | 1016.0 |
| 20260830193832 | 102 | 285 | 4.0 | 7.0 | 0.00 | 0.00 | 0.00 | 31 | 1016.1 |
| 20260830193321 | 101 | 140 | 2.0 | 8.0 | 0.00 | 0.00 | 0.00 | 32 | 1016.2 |
| 20260830193024 | 100 | 177 | 3.0 | 8.0 | 0.00 | 0.00 | 0.00 | 36 | 1012.8 |
| 20260830192827 | 101 | 204 | 2.0 | 8.0 | 0.00 | 0.00 | 0.00 | 31 | 1016.3 |
| 20260830192318 | 101 | 201 | 3.0 | 7.0 | 0.00 | 0.00 | 0.00 | 32 | 1016.3 |
| 20260830191824 | 100 | 224 | 4.0 | 7.0 | 0.00 | 0.00 | 0.00 | 32 | 1016.5 |
| 20260830191529 | 100 | 287 | 1.0 | 8.0 | 0.00 | 0.00 | 0.00 | 35 | 1013.1 |
| 20260830191319 | 100 | 221 | 3.0 | 8.0 | 0.00 | 0.00 | 0.00 | 32 | 1016.6 |
| 20260830190826 | 100 | 285 | 3.0 | 8.0 | 0.00 | 0.00 | 0.00 | 32 | 1016.6 |
| 20260830190318 | 100 | 266 | 4.0 | 8.0 | 0.00 | 0.00 | 0.00 | 32 | 1016.8 |
| 20260830190043 | 99 | 178 | 4.0 | 8.0 | 0.00 | 0.00 | 0.00 | 36 | 1013.3 |
| 20260830185825 | 100 | 211 | 4.0 | 8.0 | 0.00 | 0.00 | 0.00 | 33 | 1016.9 |
| 20260830185316 | 99 | 200 | 3.0 | 4.0 | 0.00 | 0.00 | 0.00 | 33 | 1016.9 |
| 20260830184823 | 101 | 192 | 1.0 | 6.0 | 0.00 | 0.00 | 0.00 | 32 | 1017.0 |
| 20260830184530 | 100 | 138 | 2.0 | 7.0 | 0.00 | 0.00 | 0.00 | 37 | 1013.6 |
| 20260830184314 | 99 | 92 | 2.0 | 7.0 | 0.00 | 0.00 | 0.00 | 34 | 1017.1 |
| 20260830183821 | 99 | 69 | 1.0 | 5.0 | 0.00 | 0.00 | 0.00 | 33 | 1017.2 |
| 20260830183332 | 99 | 246 | 3.0 | 5.0 | 0.00 | 0.00 | 0.00 | 33 | 1017.2 |
| 20260830183023 | 98 | 207 | 3.0 | 8.0 | 0.00 | 0.00 | 0.00 | 37 | 1013.8 |
| 20260830182823 | 98 | 232 | 2.0 | 8.0 | 0.00 | 0.00 | 0.00 | 34 | 1017.3 |
| 20260830182314 | 99 | 204 | 5.0 | 8.0 | 0.00 | 0.00 | 0.00 | 34 | 1017.4 |
| 20260830181820 | 99 | 115 | 2.0 | 5.0 | 0.00 | 0.00 | 0.00 | 33 | 1017.4 |
| 20260830181527 | 98 | 67 | 1.0 | 4.0 | 0.00 | 0.00 | 0.00 | 38 | 1014.1 |
| 20260830181331 | 98 | 88 | 2.0 | 4.0 | 0.00 | 0.00 | 0.00 | 34 | 1017.5 |
| 20260830180815 | 98 | 171 | 1.0 | 4.0 | 0.00 | 0.00 | 0.00 | 35 | 1017.7 |
| 20260830180325 | 97 | 215 | 1.0 | 9.0 | 0.00 | 0.00 | 0.00 | 35 | 1017.7 |
| 20260830180034 | 97 | 96 | 0.0 | 9.0 | 0.00 | 0.00 | 0.00 | 38 | 1014.4 |
| 20260830175831 | 97 | 150 | 3.0 | 9.0 | 0.00 | 0.00 | 0.00 | 35 | 1017.9 |
| 20260830175321 | 97 | 147 | 3.0 | 9.0 | 0.00 | 0.00 | 0.00 | 35 | 1017.8 |
| 20260830174825 | 97 | 117 | 2.0 | 7.0 | 0.00 | 0.00 | 0.00 | 35 | 1017.8 |
| 20260830174531 | 97 | 100 | 2.0 | 7.0 | 0.00 | 0.00 | 0.00 | 39 | 1014.4 |
| 20260830174335 | 97 | 110 | 3.0 | 7.0 | 0.00 | 0.00 | 0.00 | 35 | 1017.9 |
| 20260830173841 | 96 | 187 | 1.0 | 6.0 | 0.00 | 0.00 | 0.00 | 36 | 1017.9 |
| 20260830173331 | 95 | 18 | 1.0 | 2.0 | 0.00 | 0.00 | 0.00 | 36 | 1018.0 |
| 20260830173034 | 96 | 130 | 1.0 | 6.0 | 0.00 | 0.00 | 0.00 | 39 | 1014.6 |
| 20260830172822 | 96 | 84 | 1.0 | 5.0 | 0.00 | 0.00 | 0.00 | 35 | 1018.1 |
| 20260830172313 | 96 | 150 | 2.0 | 5.0 | 0.00 | 0.00 | 0.00 | 36 | 1018.1 |
| 20260830171841 | 96 | 222 | 2.0 | 4.0 | 0.00 | 0.00 | 0.00 | 36 | 1018.1 |
| 20260830171526 | 95 | 146 | 1.0 | 4.0 | 0.00 | 0.00 | 0.00 | 40 | 1014.5 |
| 20260830171350 | 95 | 134 | 2.0 | 4.0 | 0.00 | 0.00 | 0.00 | 37 | 1018.0 |
| 20260830170816 | 95 | 176 | 2.0 | 4.0 | 0.00 | 0.00 | 0.00 | 37 | 1017.9 |
| 20260830170328 | 95 | 189 | 2.0 | 4.0 | 0.00 | 0.00 | 0.00 | 36 | 1018.0 |
| 20260830170032 | 95 | 103 | 1.0 | 6.0 | 0.00 | 0.00 | 0.00 | 40 | 1014.5 |
| 20260830165815 | 95 | 128 | 1.0 | 6.0 | 0.00 | 0.00 | 0.00 | 37 | 1018.0 |
| 20260830165326 | 94 | 205 | 3.0 | 6.0 | 0.00 | 0.00 | 0.00 | 37 | 1018.1 |
| 20260830164834 | 95 | 163 | 1.0 | 4.0 | 0.00 | 0.00 | 0.00 | 38 | 1018.1 |
| 20260830164531 | 94 | 153 | 2.0 | 4.0 | 0.00 | 0.00 | 0.00 | 42 | 1014.6 |
| 20260830164324 | 94 | 121 | 1.0 | 4.0 | 0.00 | 0.00 | 0.00 | 37 | 1018.0 |
| 20260830163830 | 94 | 116 | 1.0 | 7.0 | 0.00 | 0.00 | 0.00 | 38 | 1018.0 |
| 20260830163321 | 94 | 121 | 2.0 | 7.0 | 0.00 | 0.00 | 0.00 | 38 | 1018.0 |
| 20260830163036 | 94 | 132 | 1.0 | 5.0 | 0.00 | 0.00 | 0.00 | 41 | 1014.5 |
| 20260830162832 | 94 | 108 | 2.0 | 5.0 | 0.00 | 0.00 | 0.00 | 38 | 1018.0 |
| 20260830162323 | 93 | 149 | 1.0 | 5.0 | 0.00 | 0.00 | 0.00 | 38 | 1018.0 |
| 20260830161850 | 93 | 130 | 2.0 | 9.0 | 0.00 | 0.00 | 0.00 | 39 | 1018.0 |
| 20260830161523 | 93 | 132 | 2.0 | 9.0 | 0.00 | 0.00 | 0.00 | 42 | 1014.6 |
| 20260830161320 | 93 | 136 | 2.0 | 6.0 | 0.00 | 0.00 | 0.00 | 38 | 1018.0 |
| 20260830160847 | 93 | 128 | 1.0 | 5.0 | 0.00 | 0.00 | 0.00 | 39 | 1018.0 |
| 20260830160317 | 93 | 132 | 2.0 | 7.0 | 0.00 | 0.00 | 0.00 | 40 | 1018.1 |
| 20260830160036 | 92 | 105 | 2.0 | 8.0 | 0.00 | 0.00 | 0.00 | 43 | 1014.6 |
| 20260830155825 | 92 | 155 | 2.0 | 5.0 | 0.00 | 0.00 | 0.00 | 40 | 1018.1 |
| 20260830155316 | 92 | 113 | 2.0 | 8.0 | 0.00 | 0.00 | 0.00 | 40 | 1018.0 |
| 20260830154843 | 91 | 140 | 3.0 | 8.0 | 0.00 | 0.00 | 0.00 | 40 | 1018.0 |
| 20260830154532 | 91 | 121 | 1.0 | 8.0 | 0.00 | 0.00 | 0.00 | 44 | 1014.6 |
| 20260830154313 | 91 | 130 | 2.0 | 8.0 | 0.00 | 0.00 | 0.00 | 42 | 1018.0 |
| 20260830153820 | 91 | 140 | 2.0 | 4.0 | 0.00 | 0.00 | 0.00 | 41 | 1018.0 |
| 20260830153335 | 91 | 92 | 2.0 | 6.0 | 0.00 | 0.00 | 0.00 | 42 | 1018.1 |
| 20260830153034 | 90 | 92 | 1.0 | 7.0 | 0.00 | 0.00 | 0.00 | 46 | 1014.6 |
| 20260830152822 | 90 | 95 | 2.0 | 7.0 | 0.00 | 0.00 | 0.00 | 42 | 1018.1 |
| 20260830152332 | 90 | 140 | 1.0 | 7.0 | 0.00 | 0.00 | 0.00 | 43 | 1018.0 |
| 20260830151819 | 89 | 128 | 2.0 | 6.0 | 0.00 | 0.00 | 0.00 | 43 | 1018.0 |
| 20260830151520 | 89 | 121 | 1.0 | 5.0 | 0.00 | 0.00 | 0.00 | 46 | 1014.5 |
| 20260830151349 | 89 | 159 | 2.0 | 5.0 | 0.00 | 0.00 | 0.00 | 43 | 1018.0 |
| 20260830150815 | 89 | 112 | 2.0 | 8.0 | 0.00 | 0.00 | 0.00 | 44 | 1018.0 |
| 20260830150327 | 89 | 108 | 3.0 | 8.0 | 0.00 | 0.00 | 0.00 | 44 | 1018.1 |
| 20260830150026 | 88 | 140 | 2.0 | 4.0 | 0.00 | 0.00 | 0.00 | 47 | 1014.7 |
| 20260830145814 | 89 | 142 | 2.0 | 4.0 | 0.00 | 0.00 | 0.00 | 44 | 1018.2 |
| 20260830145325 | 88 | 118 | 2.0 | 8.0 | 0.00 | 0.00 | 0.00 | 45 | 1018.2 |
| 20260830144832 | 88 | 122 | 2.0 | 8.0 | 0.00 | 0.00 | 0.00 | 45 | 1018.2 |
| 20260830144508 | 87 | 150 | 2.0 | 11.0 | 0.00 | 0.00 | 0.00 | 49 | 1014.8 |
| 20260830144327 | 88 | 145 | 2.0 | 11.0 | 0.00 | 0.00 | 0.00 | 46 | 1018.3 |
| 20260830143835 | 87 | 111 | 3.0 | 12.0 | 0.00 | 0.00 | 0.00 | 46 | 1018.2 |
| 20260830143324 | 87 | 113 | 1.0 | 12.0 | 0.00 | 0.00 | 0.00 | 47 | 1018.1 |
| 20260830143012 | 87 | 122 | 3.0 | 10.0 | 0.00 | 0.00 | 0.00 | 50 | 1014.7 |
| 20260830142831 | 87 | 94 | 2.0 | 10.0 | 0.00 | 0.00 | 0.00 | 47 | 1018.1 |
| 20260830142321 | 87 | 92 | 4.0 | 10.0 | 0.00 | 0.00 | 0.00 | 46 | 1018.1 |
| 20260830141828 | 87 | 115 | 2.0 | 7.0 | 0.00 | 0.00 | 0.00 | 47 | 1018.1 |
| 20260830141518 | 86 | 93 | 3.0 | 7.0 | 0.00 | 0.00 | 0.00 | 51 | 1014.6 |
| 20260830141319 | 86 | 132 | 3.0 | 6.0 | 0.00 | 0.00 | 0.00 | 48 | 1018.1 |
| 20260830140826 | 86 | 110 | 3.0 | 7.0 | 0.00 | 0.00 | 0.00 | 48 | 1018.0 |
| 20260830140317 | 86 | 89 | 3.0 | 7.0 | 0.00 | 0.00 | 0.00 | 48 | 1018.0 |
| 20260830140025 | 85 | 93 | 3.0 | 8.0 | 0.00 | 0.00 | 0.00 | 52 | 1014.4 |
| 20260830135824 | 85 | 87 | 3.0 | 8.0 | 0.00 | 0.00 | 0.00 | 48 | 1018.0 |
| 20260830135315 | 85 | 129 | 2.0 | 8.0 | 0.00 | 0.00 | 0.00 | 49 | 1018.0 |
| 20260830134843 | 84 | 91 | 4.0 | 6.0 | 0.00 | 0.00 | 0.00 | 50 | 1017.9 |
| 20260830134537 | 83 | 69 | 2.0 | 7.0 | 0.00 | 0.00 | 0.00 | 55 | 1014.3 |
| 20260830134317 | 84 | 60 | 3.0 | 6.0 | 0.00 | 0.00 | 0.00 | 52 | 1017.9 |
| 20260830133824 | 83 | 80 | 1.0 | 2.0 | 0.00 | 0.00 | 0.00 | 52 | 1017.8 |
| 20260830133315 | 83 | 71 | 0.0 | 4.0 | 0.00 | 0.00 | 0.00 | 53 | 1017.7 |
| 20260830133012 | 83 | 71 | 1.0 | 4.0 | 0.00 | 0.00 | 0.00 | 56 | 1014.2 |
| 20260830132822 | 83 | 58 | 2.0 | 4.0 | 0.00 | 0.00 | 0.00 | 52 | 1017.7 |
| 20260830132313 | 84 | 111 | 0.0 | 3.0 | 0.00 | 0.00 | 0.00 | 52 | 1017.5 |
| 20260830131820 | 83 | 111 | 1.0 | 3.0 | 0.00 | 0.00 | 0.00 | 52 | 1017.4 |
| 20260830131516 | 83 | 94 | 0.0 | 2.0 | 0.00 | 0.00 | 0.00 | 56 | 1013.9 |
| 20260830131331 | 83 | 96 | 0.0 | 2.0 | 0.00 | 0.00 | 0.00 | 52 | 1017.3 |
| 20260830130818 | 83 | 85 | 1.0 | 2.0 | 0.00 | 0.00 | 0.00 | 52 | 1017.1 |
| 20260830130350 | 83 | 78 | 0.0 | 3.0 | 0.00 | 0.00 | 0.00 | 51 | 1017.0 |
| 20260830130027 | 83 | 78 | 1.0 | 4.0 | 0.00 | 0.00 | 0.00 | 55 | 1013.5 |
| 20260830125820 | 84 | 95 | 1.0 | 4.0 | 0.00 | 0.00 | 0.00 | 51 | 1016.9 |
| 20260830125330 | 84 | 102 | 2.0 | 4.0 | 0.00 | 0.00 | 0.00 | 51 | 1016.9 |
| 20260830124837 | 84 | 90 | 2.0 | 3.0 | 0.00 | 0.00 | 0.00 | 50 | 1016.7 |
| 20260830124529 | 84 | 101 | 1.0 | 4.0 | 0.00 | 0.00 | 0.00 | 53 | 1013.2 |
| 20260830124347 | 85 | 96 | 1.0 | 4.0 | 0.00 | 0.00 | 0.00 | 50 | 1016.6 |
| 20260830123813 | 85 | 98 | 1.0 | 3.0 | 0.00 | 0.00 | 0.00 | 49 | 1016.6 |
| 20260830123324 | 85 | 127 | 1.0 | 4.0 | 0.00 | 0.00 | 0.00 | 48 | 1016.7 |
| 20260830123031 | 84 | 92 | 1.0 | 4.0 | 0.00 | 0.00 | 0.00 | 52 | 1013.2 |
| 20260830122831 | 85 | 119 | 1.0 | 4.0 | 0.00 | 0.00 | 0.00 | 48 | 1016.6 |
| 20260830122322 | 85 | 101 | 1.0 | 4.0 | 0.00 | 0.00 | 0.00 | 48 | 1016.4 |
| 20260830121849 | 85 | 77 | 1.0 | 6.0 | 0.00 | 0.00 | 0.00 | 48 | 1016.3 |
| 20260830121514 | 84 | 90 | 2.0 | 7.0 | 0.00 | 0.00 | 0.00 | 51 | 1012.8 |
| 20260830121319 | 85 | 76 | 3.0 | 6.0 | 0.00 | 0.00 | 0.00 | 48 | 1016.1 |
| 20260830120826 | 85 | 55 | 1.0 | 4.0 | 0.00 | 0.00 | 0.00 | 48 | 1016.1 |
| 20260830120317 | 85 | 109 | 2.0 | 6.0 | 0.00 | 0.00 | 0.00 | 47 | 1016.0 |
| 20260830120022 | 85 | 75 | 2.0 | 7.0 | 0.00 | 0.00 | 0.00 | 50 | 1012.5 |
| 20260830115828 | 85 | 106 | 3.0 | 7.0 | 0.00 | 0.00 | 0.00 | 46 | 1016.0 |
| 20260830115319 | 85 | 103 | 2.0 | 5.0 | 0.00 | 0.00 | 0.00 | 47 | 1016.0 |
| 20260830114847 | 85 | 99 | 1.0 | 3.0 | 0.00 | 0.00 | 0.00 | 47 | 1016.0 |
| 20260830114526 | 85 | 137 | 1.0 | 4.0 | 0.00 | 0.00 | 0.00 | 50 | 1012.5 |
| 20260830114317 | 85 | 104 | 1.0 | 4.0 | 0.00 | 0.00 | 0.00 | 47 | 1016.0 |
| 20260830113824 | 85 | 132 | 1.0 | 4.0 | 0.00 | 0.00 | 0.00 | 47 | 1016.0 |
| 20260830113315 | 85 | 145 | 1.0 | 2.0 | 0.00 | 0.00 | 0.00 | 48 | 1016.1 |
| 20260830113029 | 84 | 123 | 1.0 | 2.0 | 0.00 | 0.00 | 0.00 | 52 | 1012.7 |
| 20260830112822 | 84 | 110 | 1.0 | 2.0 | 0.00 | 0.00 | 0.00 | 49 | 1016.1 |
| 20260830112313 | 84 | 98 | 0.0 | 2.0 | 0.00 | 0.00 | 0.00 | 51 | 1016.1 |
| 20260830111820 | 84 | 98 | 0.0 | 2.0 | 0.00 | 0.00 | 0.00 | 50 | 1016.2 |
| 20260830111511 | 84 | 98 | 0.0 | 2.0 | 0.00 | 0.00 | 0.00 | 54 | 1012.8 |